sensor_id;sensor_type;location;lat;lon;timestamp;temperature;humidity
13982;DHT22;7065;50.880;5.502;2022-11-20T00:00:57;3.10;99.90
13982;DHT22;7065;50.880;5.502;2022-11-20T00:03:29;3.10;99.90
13982;DHT22;7065;50.880;5.502;2022-11-20T00:06:00;3.00;99.90
13982;DHT22;7065;50.880;5.502;2022-11-20T00:08:25;3.10;99.90
13982;DHT22;7065;50.880;5.502;2022-11-20T00:10:51;3.00;99.90
13982;DHT22;7065;50.880;5.502;2022-11-20T00:13:17;2.90;99.90
13982;DHT22;7065;50.880;5.502;2022-11-20T00:15:42;2.90;99.90
13982;DHT22;7065;50.880;5.502;2022-11-20T00:18:08;2.90;99.90
13982;DHT22;7065;50.880;5.502;2022-11-20T00:20:33;2.90;99.90
13982;DHT22;7065;50.880;5.502;2022-11-20T00:22:59;2.90;99.90
13982;DHT22;7065;50.880;5.502;2022-11-20T00:25:25;2.90;99.90
13982;DHT22;7065;50.880;5.502;2022-11-20T00:27:51;2.90;99.90
13982;DHT22;7065;50.880;5.502;2022-11-20T00:30:17;2.90;99.90
13982;DHT22;7065;50.880;5.502;2022-11-20T00:32:42;2.80;99.90
13982;DHT22;7065;50.880;5.502;2022-11-20T00:35:08;2.80;99.90
13982;DHT22;7065;50.880;5.502;2022-11-20T00:37:34;2.80;99.90
13982;DHT22;7065;50.880;5.502;2022-11-20T00:39:59;2.80;99.90
13982;DHT22;7065;50.880;5.502;2022-11-20T00:42:25;2.80;99.90
13982;DHT22;7065;50.880;5.502;2022-11-20T00:44:50;2.80;99.90
13982;DHT22;7065;50.880;5.502;2022-11-20T00:47:16;2.90;99.90
13982;DHT22;7065;50.880;5.502;2022-11-20T00:49:42;2.90;99.90
13982;DHT22;7065;50.880;5.502;2022-11-20T00:52:07;2.90;99.90
13982;DHT22;7065;50.880;5.502;2022-11-20T00:54:33;2.90;99.90
13982;DHT22;7065;50.880;5.502;2022-11-20T00:56:58;2.90;99.90
13982;DHT22;7065;50.880;5.502;2022-11-20T00:59:24;2.90;99.90
13982;DHT22;7065;50.880;5.502;2022-11-20T01:01:50;3.00;99.90
13982;DHT22;7065;50.880;5.502;2022-11-20T01:04:16;2.90;99.90
13982;DHT22;7065;50.880;5.502;2022-11-20T01:06:42;2.90;99.90
13982;DHT22;7065;50.880;5.502;2022-11-20T01:09:13;2.90;99.90
13982;DHT22;7065;50.880;5.502;2022-11-20T01:11:41;2.90;99.90
13982;DHT22;7065;50.880;5.502;2022-11-20T01:14:11;2.90;99.90
13982;DHT22;7065;50.880;5.502;2022-11-20T01:16:40;3.00;99.90
13982;DHT22;7065;50.880;5.502;2022-11-20T01:19:09;3.00;99.90
13982;DHT22;7065;50.880;5.502;2022-11-20T01:21:37;3.00;99.90
13982;DHT22;7065;50.880;5.502;2022-11-20T01:24:04;3.00;99.90
13982;DHT22;7065;50.880;5.502;2022-11-20T01:26:32;3.10;99.90
13982;DHT22;7065;50.880;5.502;2022-11-20T01:28:59;3.00;99.90
13982;DHT22;7065;50.880;5.502;2022-11-20T01:31:26;3.10;99.90
13982;DHT22;7065;50.880;5.502;2022-11-20T01:33:53;3.10;99.90
13982;DHT22;7065;50.880;5.502;2022-11-20T01:36:21;3.10;99.90
13982;DHT22;7065;50.880;5.502;2022-11-20T01:38:47;3.10;99.90
13982;DHT22;7065;50.880;5.502;2022-11-20T01:41:14;3.10;99.90
13982;DHT22;7065;50.880;5.502;2022-11-20T01:44:00;3.20;99.90
13982;DHT22;7065;50.880;5.502;2022-11-20T01:46:27;3.20;99.90
13982;DHT22;7065;50.880;5.502;2022-11-20T01:51:29;3.20;99.90
13982;DHT22;7065;50.880;5.502;2022-11-20T01:53:58;3.30;99.90
13982;DHT22;7065;50.880;5.502;2022-11-20T01:56:25;3.30;99.90
13982;DHT22;7065;50.880;5.502;2022-11-20T01:58:55;3.30;99.90
13982;DHT22;7065;50.880;5.502;2022-11-20T02:01:21;3.30;99.90
13982;DHT22;7065;50.880;5.502;2022-11-20T02:03:49;3.30;99.90
13982;DHT22;7065;50.880;5.502;2022-11-20T02:06:21;3.30;99.90
13982;DHT22;7065;50.880;5.502;2022-11-20T02:08:48;3.30;99.90
13982;DHT22;7065;50.880;5.502;2022-11-20T02:11:14;3.30;99.90
13982;DHT22;7065;50.880;5.502;2022-11-20T02:13:40;3.30;99.90
13982;DHT22;7065;50.880;5.502;2022-11-20T02:16:24;3.30;99.90
13982;DHT22;7065;50.880;5.502;2022-11-20T02:18:51;3.30;99.90
13982;DHT22;7065;50.880;5.502;2022-11-20T02:21:28;3.30;99.90
13982;DHT22;7065;50.880;5.502;2022-11-20T02:26:58;3.30;99.90
13982;DHT22;7065;50.880;5.502;2022-11-20T02:29:32;3.30;99.90
13982;DHT22;7065;50.880;5.502;2022-11-20T02:32:00;3.20;99.90
13982;DHT22;7065;50.880;5.502;2022-11-20T02:34:27;3.20;99.90
13982;DHT22;7065;50.880;5.502;2022-11-20T02:36:54;3.20;99.90
13982;DHT22;7065;50.880;5.502;2022-11-20T02:39:21;3.20;99.90
13982;DHT22;7065;50.880;5.502;2022-11-20T02:41:48;3.20;99.90
13982;DHT22;7065;50.880;5.502;2022-11-20T02:44:14;3.20;99.90
13982;DHT22;7065;50.880;5.502;2022-11-20T02:46:39;3.20;99.90
13982;DHT22;7065;50.880;5.502;2022-11-20T02:49:05;3.20;99.90
13982;DHT22;7065;50.880;5.502;2022-11-20T02:51:31;3.20;99.90
13982;DHT22;7065;50.880;5.502;2022-11-20T02:53:57;3.30;99.90
13982;DHT22;7065;50.880;5.502;2022-11-20T02:56:24;3.20;99.90
13982;DHT22;7065;50.880;5.502;2022-11-20T02:58:49;3.30;99.90
13982;DHT22;7065;50.880;5.502;2022-11-20T03:01:15;3.20;99.90
13982;DHT22;7065;50.880;5.502;2022-11-20T03:03:41;3.20;99.90
13982;DHT22;7065;50.880;5.502;2022-11-20T03:06:07;3.30;99.90
13982;DHT22;7065;50.880;5.502;2022-11-20T03:08:33;3.20;99.90
13982;DHT22;7065;50.880;5.502;2022-11-20T03:11:03;3.30;99.90
13982;DHT22;7065;50.880;5.502;2022-11-20T03:13:29;3.30;99.90
13982;DHT22;7065;50.880;5.502;2022-11-20T03:15:55;3.20;99.90
13982;DHT22;7065;50.880;5.502;2022-11-20T03:18:20;3.20;99.90
13982;DHT22;7065;50.880;5.502;2022-11-20T03:20:46;3.30;99.90
13982;DHT22;7065;50.880;5.502;2022-11-20T03:23:12;3.30;99.90
13982;DHT22;7065;50.880;5.502;2022-11-20T03:25:37;3.20;99.90
13982;DHT22;7065;50.880;5.502;2022-11-20T03:28:03;3.20;99.90
13982;DHT22;7065;50.880;5.502;2022-11-20T03:30:29;3.20;99.90
13982;DHT22;7065;50.880;5.502;2022-11-20T03:32:55;3.20;99.90
13982;DHT22;7065;50.880;5.502;2022-11-20T03:35:20;3.20;99.90
13982;DHT22;7065;50.880;5.502;2022-11-20T03:37:46;3.20;99.90
13982;DHT22;7065;50.880;5.502;2022-11-20T03:40:12;3.10;99.90
13982;DHT22;7065;50.880;5.502;2022-11-20T03:42:38;3.20;99.90
13982;DHT22;7065;50.880;5.502;2022-11-20T03:45:16;3.20;99.90
13982;DHT22;7065;50.880;5.502;2022-11-20T03:47:43;3.20;99.90
13982;DHT22;7065;50.880;5.502;2022-11-20T03:50:10;3.20;99.90
13982;DHT22;7065;50.880;5.502;2022-11-20T03:52:38;3.20;99.90
13982;DHT22;7065;50.880;5.502;2022-11-20T03:55:04;3.20;99.90
13982;DHT22;7065;50.880;5.502;2022-11-20T03:57:30;3.20;99.90
13982;DHT22;7065;50.880;5.502;2022-11-20T03:59:56;3.10;99.90
13982;DHT22;7065;50.880;5.502;2022-11-20T04:02:21;3.20;99.90
13982;DHT22;7065;50.880;5.502;2022-11-20T04:04:47;3.10;99.90
13982;DHT22;7065;50.880;5.502;2022-11-20T04:07:13;3.10;99.90
13982;DHT22;7065;50.880;5.502;2022-11-20T04:09:38;3.10;99.90
13982;DHT22;7065;50.880;5.502;2022-11-20T04:12:04;3.20;99.90
13982;DHT22;7065;50.880;5.502;2022-11-20T04:14:30;3.10;99.90
13982;DHT22;7065;50.880;5.502;2022-11-20T04:16:55;3.10;99.90
13982;DHT22;7065;50.880;5.502;2022-11-20T04:19:21;3.10;99.90
13982;DHT22;7065;50.880;5.502;2022-11-20T04:21:47;3.10;99.90
13982;DHT22;7065;50.880;5.502;2022-11-20T04:24:13;3.10;99.90
13982;DHT22;7065;50.880;5.502;2022-11-20T04:26:39;3.10;99.90
13982;DHT22;7065;50.880;5.502;2022-11-20T04:29:04;3.10;99.90
13982;DHT22;7065;50.880;5.502;2022-11-20T04:31:34;3.10;99.90
13982;DHT22;7065;50.880;5.502;2022-11-20T04:34:02;3.10;99.90
13982;DHT22;7065;50.880;5.502;2022-11-20T04:36:28;3.10;99.90
13982;DHT22;7065;50.880;5.502;2022-11-20T04:38:56;3.10;99.90
13982;DHT22;7065;50.880;5.502;2022-11-20T04:41:24;3.10;99.90
13982;DHT22;7065;50.880;5.502;2022-11-20T04:43:55;3.10;99.90
13982;DHT22;7065;50.880;5.502;2022-11-20T04:46:30;3.10;99.90
13982;DHT22;7065;50.880;5.502;2022-11-20T04:48:56;3.10;99.90
13982;DHT22;7065;50.880;5.502;2022-11-20T04:51:22;3.10;99.90
13982;DHT22;7065;50.880;5.502;2022-11-20T04:53:48;3.20;99.90
13982;DHT22;7065;50.880;5.502;2022-11-20T04:56:14;3.10;99.90
13982;DHT22;7065;50.880;5.502;2022-11-20T04:58:40;3.10;99.90
13982;DHT22;7065;50.880;5.502;2022-11-20T05:01:10;3.10;99.90
13982;DHT22;7065;50.880;5.502;2022-11-20T05:03:36;3.20;99.90
13982;DHT22;7065;50.880;5.502;2022-11-20T05:06:06;3.10;99.90
13982;DHT22;7065;50.880;5.502;2022-11-20T05:08:33;3.10;99.90
13982;DHT22;7065;50.880;5.502;2022-11-20T05:11:03;3.10;99.90
13982;DHT22;7065;50.880;5.502;2022-11-20T05:13:29;3.10;99.90
13982;DHT22;7065;50.880;5.502;2022-11-20T05:15:55;3.00;99.90
13982;DHT22;7065;50.880;5.502;2022-11-20T05:18:20;3.10;99.90
13982;DHT22;7065;50.880;5.502;2022-11-20T05:20:46;3.10;99.90
13982;DHT22;7065;50.880;5.502;2022-11-20T05:23:12;3.10;99.90
13982;DHT22;7065;50.880;5.502;2022-11-20T05:25:37;3.10;99.90
13982;DHT22;7065;50.880;5.502;2022-11-20T05:28:03;3.10;99.90
13982;DHT22;7065;50.880;5.502;2022-11-20T05:30:28;3.10;99.90
13982;DHT22;7065;50.880;5.502;2022-11-20T05:32:54;3.10;99.90
13982;DHT22;7065;50.880;5.502;2022-11-20T05:35:20;3.10;99.90
13982;DHT22;7065;50.880;5.502;2022-11-20T05:37:45;3.10;99.90
13982;DHT22;7065;50.880;5.502;2022-11-20T05:40:11;3.10;99.90
13982;DHT22;7065;50.880;5.502;2022-11-20T05:42:37;3.10;99.90
13982;DHT22;7065;50.880;5.502;2022-11-20T05:45:04;3.10;99.90
13982;DHT22;7065;50.880;5.502;2022-11-20T05:47:34;3.20;99.90
13982;DHT22;7065;50.880;5.502;2022-11-20T05:50:00;3.20;99.90
13982;DHT22;7065;50.880;5.502;2022-11-20T05:52:29;3.20;99.90
13982;DHT22;7065;50.880;5.502;2022-11-20T05:54:56;3.20;99.90
13982;DHT22;7065;50.880;5.502;2022-11-20T05:57:21;3.20;99.90
13982;DHT22;7065;50.880;5.502;2022-11-20T05:59:47;3.20;99.90
13982;DHT22;7065;50.880;5.502;2022-11-20T06:02:13;3.20;99.90
13982;DHT22;7065;50.880;5.502;2022-11-20T06:04:38;3.30;99.90
13982;DHT22;7065;50.880;5.502;2022-11-20T06:07:07;3.20;99.90
13982;DHT22;7065;50.880;5.502;2022-11-20T06:09:33;3.20;99.90
13982;DHT22;7065;50.880;5.502;2022-11-20T06:11:59;3.30;99.90
13982;DHT22;7065;50.880;5.502;2022-11-20T06:14:25;3.30;99.90
13982;DHT22;7065;50.880;5.502;2022-11-20T06:16:50;3.30;99.90
13982;DHT22;7065;50.880;5.502;2022-11-20T06:19:16;3.30;99.90
13982;DHT22;7065;50.880;5.502;2022-11-20T06:21:42;3.30;99.90
13982;DHT22;7065;50.880;5.502;2022-11-20T06:24:09;3.30;99.90
13982;DHT22;7065;50.880;5.502;2022-11-20T06:26:36;3.30;99.90
13982;DHT22;7065;50.880;5.502;2022-11-20T06:29:02;3.30;99.90
13982;DHT22;7065;50.880;5.502;2022-11-20T06:31:28;3.30;99.90
13982;DHT22;7065;50.880;5.502;2022-11-20T06:33:54;3.30;99.90
13982;DHT22;7065;50.880;5.502;2022-11-20T06:36:22;3.30;99.90
13982;DHT22;7065;50.880;5.502;2022-11-20T06:38:47;3.30;99.90
13982;DHT22;7065;50.880;5.502;2022-11-20T06:41:15;3.30;99.90
13982;DHT22;7065;50.880;5.502;2022-11-20T06:43:41;3.30;99.90
13982;DHT22;7065;50.880;5.502;2022-11-20T06:46:09;3.40;99.90
13982;DHT22;7065;50.880;5.502;2022-11-20T06:48:36;3.40;99.90
13982;DHT22;7065;50.880;5.502;2022-11-20T06:51:06;3.40;99.90
13982;DHT22;7065;50.880;5.502;2022-11-20T06:53:32;3.40;99.90
13982;DHT22;7065;50.880;5.502;2022-11-20T06:55:59;3.40;99.90
13982;DHT22;7065;50.880;5.502;2022-11-20T06:58:27;3.40;99.90
13982;DHT22;7065;50.880;5.502;2022-11-20T07:00:53;3.40;99.90
13982;DHT22;7065;50.880;5.502;2022-11-20T07:03:19;3.50;99.90
13982;DHT22;7065;50.880;5.502;2022-11-20T07:05:45;3.40;99.90
13982;DHT22;7065;50.880;5.502;2022-11-20T07:08:11;3.40;99.90
13982;DHT22;7065;50.880;5.502;2022-11-20T07:10:37;3.40;99.90
13982;DHT22;7065;50.880;5.502;2022-11-20T07:13:03;3.40;99.90
13982;DHT22;7065;50.880;5.502;2022-11-20T07:15:29;3.50;99.90
13982;DHT22;7065;50.880;5.502;2022-11-20T07:17:55;3.40;99.90
13982;DHT22;7065;50.880;5.502;2022-11-20T07:20:20;3.50;99.90
13982;DHT22;7065;50.880;5.502;2022-11-20T07:22:46;3.50;99.90
13982;DHT22;7065;50.880;5.502;2022-11-20T07:25:12;3.50;99.90
13982;DHT22;7065;50.880;5.502;2022-11-20T07:27:37;3.50;99.90
13982;DHT22;7065;50.880;5.502;2022-11-20T07:30:04;3.50;99.90
13982;DHT22;7065;50.880;5.502;2022-11-20T07:32:30;3.50;99.90
13982;DHT22;7065;50.880;5.502;2022-11-20T07:34:55;3.50;99.90
13982;DHT22;7065;50.880;5.502;2022-11-20T07:37:21;3.50;99.90
13982;DHT22;7065;50.880;5.502;2022-11-20T07:39:47;3.60;99.90
13982;DHT22;7065;50.880;5.502;2022-11-20T07:42:12;3.60;99.90
13982;DHT22;7065;50.880;5.502;2022-11-20T07:44:39;3.60;99.90
13982;DHT22;7065;50.880;5.502;2022-11-20T07:47:05;3.60;99.90
13982;DHT22;7065;50.880;5.502;2022-11-20T07:49:31;3.60;99.90
13982;DHT22;7065;50.880;5.502;2022-11-20T07:51:56;3.70;99.90
13982;DHT22;7065;50.880;5.502;2022-11-20T07:54:22;3.70;99.90
13982;DHT22;7065;50.880;5.502;2022-11-20T07:56:48;3.80;99.90
13982;DHT22;7065;50.880;5.502;2022-11-20T07:59:15;3.80;99.90
13982;DHT22;7065;50.880;5.502;2022-11-20T08:01:41;3.80;99.90
13982;DHT22;7065;50.880;5.502;2022-11-20T08:04:08;3.80;99.90
13982;DHT22;7065;50.880;5.502;2022-11-20T08:06:34;3.80;99.90
13982;DHT22;7065;50.880;5.502;2022-11-20T08:08:59;3.90;99.90
13982;DHT22;7065;50.880;5.502;2022-11-20T08:11:25;3.90;99.90
13982;DHT22;7065;50.880;5.502;2022-11-20T08:14:09;4.00;99.90
13982;DHT22;7065;50.880;5.502;2022-11-20T08:16:48;4.10;99.90
13982;DHT22;7065;50.880;5.502;2022-11-20T08:19:15;4.20;99.90
13982;DHT22;7065;50.880;5.502;2022-11-20T08:21:41;4.30;99.90
13982;DHT22;7065;50.880;5.502;2022-11-20T08:24:07;4.40;99.90
13982;DHT22;7065;50.880;5.502;2022-11-20T08:26:35;4.40;99.90
13982;DHT22;7065;50.880;5.502;2022-11-20T08:29:01;4.40;99.90
13982;DHT22;7065;50.880;5.502;2022-11-20T08:31:27;4.50;99.90
13982;DHT22;7065;50.880;5.502;2022-11-20T08:33:53;4.50;99.90
13982;DHT22;7065;50.880;5.502;2022-11-20T08:36:20;4.50;99.90
13982;DHT22;7065;50.880;5.502;2022-11-20T08:38:50;4.50;99.90
13982;DHT22;7065;50.880;5.502;2022-11-20T08:41:17;4.60;99.90
13982;DHT22;7065;50.880;5.502;2022-11-20T08:44:01;4.60;99.90
13982;DHT22;7065;50.880;5.502;2022-11-20T08:46:32;4.60;99.90
13982;DHT22;7065;50.880;5.502;2022-11-20T08:48:59;4.60;99.90
13982;DHT22;7065;50.880;5.502;2022-11-20T08:51:25;4.60;99.90
13982;DHT22;7065;50.880;5.502;2022-11-20T08:53:50;4.60;99.90
13982;DHT22;7065;50.880;5.502;2022-11-20T08:56:17;4.70;99.90
13982;DHT22;7065;50.880;5.502;2022-11-20T08:58:43;4.60;99.90
13982;DHT22;7065;50.880;5.502;2022-11-20T09:01:09;4.60;99.90
13982;DHT22;7065;50.880;5.502;2022-11-20T09:03:35;4.70;99.90
13982;DHT22;7065;50.880;5.502;2022-11-20T09:06:04;4.70;99.90
13982;DHT22;7065;50.880;5.502;2022-11-20T09:08:30;4.80;99.90
13982;DHT22;7065;50.880;5.502;2022-11-20T09:10:57;4.90;99.90
13982;DHT22;7065;50.880;5.502;2022-11-20T09:13:24;5.00;99.90
13982;DHT22;7065;50.880;5.502;2022-11-20T09:15:58;5.10;99.90
13982;DHT22;7065;50.880;5.502;2022-11-20T09:18:24;5.10;99.90
13982;DHT22;7065;50.880;5.502;2022-11-20T09:20:50;5.10;99.90
13982;DHT22;7065;50.880;5.502;2022-11-20T09:23:16;5.20;99.90
13982;DHT22;7065;50.880;5.502;2022-11-20T09:25:43;5.30;99.90
13982;DHT22;7065;50.880;5.502;2022-11-20T09:28:09;5.30;99.90
13982;DHT22;7065;50.880;5.502;2022-11-20T09:30:35;5.30;99.90
13982;DHT22;7065;50.880;5.502;2022-11-20T09:33:00;5.30;99.90
13982;DHT22;7065;50.880;5.502;2022-11-20T09:35:26;5.30;99.90
13982;DHT22;7065;50.880;5.502;2022-11-20T09:37:52;5.30;99.90
13982;DHT22;7065;50.880;5.502;2022-11-20T09:40:22;5.30;99.90
13982;DHT22;7065;50.880;5.502;2022-11-20T09:42:59;5.40;99.90
13982;DHT22;7065;50.880;5.502;2022-11-20T09:56:16;5.60;99.90
13982;DHT22;7065;50.880;5.502;2022-11-20T09:58:49;5.70;99.90
13982;DHT22;7065;50.880;5.502;2022-11-20T10:01:18;5.70;99.90
13982;DHT22;7065;50.880;5.502;2022-11-20T10:06:29;5.70;99.90
13982;DHT22;7065;50.880;5.502;2022-11-20T10:09:01;5.70;99.90
13982;DHT22;7065;50.880;5.502;2022-11-20T10:19:53;6.00;99.90
13982;DHT22;7065;50.880;5.502;2022-11-20T10:22:57;6.10;99.90
13982;DHT22;7065;50.880;5.502;2022-11-20T10:25:37;6.10;99.90
13982;DHT22;7065;50.880;5.502;2022-11-20T10:28:23;6.10;99.90
13982;DHT22;7065;50.880;5.502;2022-11-20T10:31:02;6.10;99.90
13982;DHT22;7065;50.880;5.502;2022-11-20T10:33:36;6.20;99.90
13982;DHT22;7065;50.880;5.502;2022-11-20T10:36:24;6.20;99.90
13982;DHT22;7065;50.880;5.502;2022-11-20T10:38:58;6.30;99.90
13982;DHT22;7065;50.880;5.502;2022-11-20T10:41:33;6.30;99.90
13982;DHT22;7065;50.880;5.502;2022-11-20T10:46:35;6.40;99.90
13982;DHT22;7065;50.880;5.502;2022-11-20T10:49:09;6.40;99.90
13982;DHT22;7065;50.880;5.502;2022-11-20T10:51:46;6.40;99.90
13982;DHT22;7065;50.880;5.502;2022-11-20T10:54:34;6.50;99.90
13982;DHT22;7065;50.880;5.502;2022-11-20T10:57:22;6.50;99.90
13982;DHT22;7065;50.880;5.502;2022-11-20T11:02:32;6.60;99.90
13982;DHT22;7065;50.880;5.502;2022-11-20T11:07:57;6.80;99.90
13982;DHT22;7065;50.880;5.502;2022-11-20T11:10:46;6.80;99.90
13982;DHT22;7065;50.880;5.502;2022-11-20T11:13:28;6.90;99.90
13982;DHT22;7065;50.880;5.502;2022-11-20T11:15:54;7.00;99.90
13982;DHT22;7065;50.880;5.502;2022-11-20T11:18:27;7.10;99.90
13982;DHT22;7065;50.880;5.502;2022-11-20T11:20:54;7.20;99.90
13982;DHT22;7065;50.880;5.502;2022-11-20T11:23:40;7.20;99.90
13982;DHT22;7065;50.880;5.502;2022-11-20T11:26:20;7.30;99.90
13982;DHT22;7065;50.880;5.502;2022-11-20T11:28:59;7.30;99.90
13982;DHT22;7065;50.880;5.502;2022-11-20T11:31:30;7.30;99.90
13982;DHT22;7065;50.880;5.502;2022-11-20T11:34:16;7.40;99.90
13982;DHT22;7065;50.880;5.502;2022-11-20T11:36:51;7.40;99.90
13982;DHT22;7065;50.880;5.502;2022-11-20T11:39:20;7.40;99.90
13982;DHT22;7065;50.880;5.502;2022-11-20T11:41:47;7.40;99.90
13982;DHT22;7065;50.880;5.502;2022-11-20T11:44:32;7.40;99.90
13982;DHT22;7065;50.880;5.502;2022-11-20T11:50:18;7.50;99.90
13982;DHT22;7065;50.880;5.502;2022-11-20T11:52:58;7.60;99.90
13982;DHT22;7065;50.880;5.502;2022-11-20T11:55:31;7.70;99.90
13982;DHT22;7065;50.880;5.502;2022-11-20T12:01:08;7.70;99.90
13982;DHT22;7065;50.880;5.502;2022-11-20T12:03:39;7.80;99.90
13982;DHT22;7065;50.880;5.502;2022-11-20T12:06:14;7.90;99.90
13982;DHT22;7065;50.880;5.502;2022-11-20T12:11:46;8.10;99.90
13982;DHT22;7065;50.880;5.502;2022-11-20T12:14:19;8.20;99.90
13982;DHT22;7065;50.880;5.502;2022-11-20T12:16:49;8.20;99.90
13982;DHT22;7065;50.880;5.502;2022-11-20T12:19:15;8.30;99.90
13982;DHT22;7065;50.880;5.502;2022-11-20T12:30:12;8.50;99.90
13982;DHT22;7065;50.880;5.502;2022-11-20T12:41:01;8.60;99.90
13982;DHT22;7065;50.880;5.502;2022-11-20T12:43:34;8.50;99.90
13982;DHT22;7065;50.880;5.502;2022-11-20T12:46:41;8.50;99.90
13982;DHT22;7065;50.880;5.502;2022-11-20T13:07:16;8.50;99.90
13982;DHT22;7065;50.880;5.502;2022-11-20T13:09:47;8.50;99.90
13982;DHT22;7065;50.880;5.502;2022-11-20T13:12:40;8.50;99.90
13982;DHT22;7065;50.880;5.502;2022-11-20T13:18:01;8.50;99.90
13982;DHT22;7065;50.880;5.502;2022-11-20T13:20:29;8.50;99.90
13982;DHT22;7065;50.880;5.502;2022-11-20T13:22:56;8.40;99.90
13982;DHT22;7065;50.880;5.502;2022-11-20T13:25:33;8.40;99.90
13982;DHT22;7065;50.880;5.502;2022-11-20T13:28:03;8.40;99.90
13982;DHT22;7065;50.880;5.502;2022-11-20T13:30:30;8.40;99.90
13982;DHT22;7065;50.880;5.502;2022-11-20T13:35:35;8.30;99.90
13982;DHT22;7065;50.880;5.502;2022-11-20T13:40:27;8.10;99.90
13982;DHT22;7065;50.880;5.502;2022-11-20T13:43:51;8.00;99.90
13982;DHT22;7065;50.880;5.502;2022-11-20T13:46:02;7.90;99.90
13982;DHT22;7065;50.880;5.502;2022-11-20T13:48:39;7.80;99.90
13982;DHT22;7065;50.880;5.502;2022-11-20T13:54:21;7.70;99.90
13982;DHT22;7065;50.880;5.502;2022-11-20T14:02:23;7.50;99.90
13982;DHT22;7065;50.880;5.502;2022-11-20T14:04:53;7.50;99.90
13982;DHT22;7065;50.880;5.502;2022-11-20T14:07:21;7.40;99.90
13982;DHT22;7065;50.880;5.502;2022-11-20T14:09:54;7.40;99.90
13982;DHT22;7065;50.880;5.502;2022-11-20T14:12:31;7.30;99.90
13982;DHT22;7065;50.880;5.502;2022-11-20T14:14:57;7.30;99.90
13982;DHT22;7065;50.880;5.502;2022-11-20T14:17:30;7.30;99.90
13982;DHT22;7065;50.880;5.502;2022-11-20T14:20:06;7.30;99.90
13982;DHT22;7065;50.880;5.502;2022-11-20T14:22:37;7.30;99.90
13982;DHT22;7065;50.880;5.502;2022-11-20T14:27:40;7.30;99.90
13982;DHT22;7065;50.880;5.502;2022-11-20T14:30:13;7.30;99.90
13982;DHT22;7065;50.880;5.502;2022-11-20T14:32:41;7.30;99.90
13982;DHT22;7065;50.880;5.502;2022-11-20T14:35:09;7.30;99.90
13982;DHT22;7065;50.880;5.502;2022-11-20T14:37:38;7.30;99.90
13982;DHT22;7065;50.880;5.502;2022-11-20T14:42:47;7.30;99.90
13982;DHT22;7065;50.880;5.502;2022-11-20T14:45:13;7.30;99.90
13982;DHT22;7065;50.880;5.502;2022-11-20T14:47:40;7.20;99.90
13982;DHT22;7065;50.880;5.502;2022-11-20T14:50:14;7.20;99.90
13982;DHT22;7065;50.880;5.502;2022-11-20T14:52:53;7.20;99.90
13982;DHT22;7065;50.880;5.502;2022-11-20T14:55:31;7.20;99.90
13982;DHT22;7065;50.880;5.502;2022-11-20T14:57:59;7.20;99.90
13982;DHT22;7065;50.880;5.502;2022-11-20T15:00:25;7.10;99.90
13982;DHT22;7065;50.880;5.502;2022-11-20T15:02:52;7.10;99.90
13982;DHT22;7065;50.880;5.502;2022-11-20T15:05:25;7.10;99.90
13982;DHT22;7065;50.880;5.502;2022-11-20T15:08:07;7.10;99.90
13982;DHT22;7065;50.880;5.502;2022-11-20T15:10:34;7.10;99.90
13982;DHT22;7065;50.880;5.502;2022-11-20T15:13:05;7.10;99.90
13982;DHT22;7065;50.880;5.502;2022-11-20T15:15:49;7.10;99.90
13982;DHT22;7065;50.880;5.502;2022-11-20T15:18:17;7.10;99.90
13982;DHT22;7065;50.880;5.502;2022-11-20T15:20:44;7.10;99.90
13982;DHT22;7065;50.880;5.502;2022-11-20T15:23:15;7.10;99.90
13982;DHT22;7065;50.880;5.502;2022-11-20T15:25:42;7.10;99.90
13982;DHT22;7065;50.880;5.502;2022-11-20T15:28:29;7.10;99.90
13982;DHT22;7065;50.880;5.502;2022-11-20T15:30:55;7.10;99.90
13982;DHT22;7065;50.880;5.502;2022-11-20T15:33:22;7.10;99.90
13982;DHT22;7065;50.880;5.502;2022-11-20T15:35:48;7.10;99.90
13982;DHT22;7065;50.880;5.502;2022-11-20T15:38:13;7.10;99.90
13982;DHT22;7065;50.880;5.502;2022-11-20T15:40:40;7.10;99.90
13982;DHT22;7065;50.880;5.502;2022-11-20T15:43:06;7.10;99.90
13982;DHT22;7065;50.880;5.502;2022-11-20T15:48:12;7.10;99.90
13982;DHT22;7065;50.880;5.502;2022-11-20T15:50:47;7.20;99.90
13982;DHT22;7065;50.880;5.502;2022-11-20T15:53:14;7.20;99.90
13982;DHT22;7065;50.880;5.502;2022-11-20T15:55:40;7.20;99.90
13982;DHT22;7065;50.880;5.502;2022-11-20T15:58:06;7.20;99.90
13982;DHT22;7065;50.880;5.502;2022-11-20T16:00:31;7.30;99.90
13982;DHT22;7065;50.880;5.502;2022-11-20T16:02:57;7.30;99.90
13982;DHT22;7065;50.880;5.502;2022-11-20T16:05:23;7.30;99.90
13982;DHT22;7065;50.880;5.502;2022-11-20T16:07:49;7.40;99.90
13982;DHT22;7065;50.880;5.502;2022-11-20T16:10:16;7.30;99.90
13982;DHT22;7065;50.880;5.502;2022-11-20T16:12:41;7.40;99.90
13982;DHT22;7065;50.880;5.502;2022-11-20T16:15:26;7.40;99.90
13982;DHT22;7065;50.880;5.502;2022-11-20T16:18:11;7.40;99.90
13982;DHT22;7065;50.880;5.502;2022-11-20T16:20:37;7.40;99.90
13982;DHT22;7065;50.880;5.502;2022-11-20T16:23:04;7.40;99.90
13982;DHT22;7065;50.880;5.502;2022-11-20T16:25:31;7.40;99.90
13982;DHT22;7065;50.880;5.502;2022-11-20T16:27:57;7.40;99.90
13982;DHT22;7065;50.880;5.502;2022-11-20T16:30:23;7.40;99.90
13982;DHT22;7065;50.880;5.502;2022-11-20T16:32:48;7.40;99.90
13982;DHT22;7065;50.880;5.502;2022-11-20T16:35:14;7.40;99.90
13982;DHT22;7065;50.880;5.502;2022-11-20T16:37:40;7.40;99.90
13982;DHT22;7065;50.880;5.502;2022-11-20T16:40:06;7.40;99.90
13982;DHT22;7065;50.880;5.502;2022-11-20T16:42:36;7.50;99.90
13982;DHT22;7065;50.880;5.502;2022-11-20T16:45:03;7.50;99.90
13982;DHT22;7065;50.880;5.502;2022-11-20T16:47:34;7.50;99.90
13982;DHT22;7065;50.880;5.502;2022-11-20T16:50:00;7.60;99.90
13982;DHT22;7065;50.880;5.502;2022-11-20T16:52:26;7.60;99.90
13982;DHT22;7065;50.880;5.502;2022-11-20T16:54:52;7.60;99.90
13982;DHT22;7065;50.880;5.502;2022-11-20T16:57:17;7.70;99.90
13982;DHT22;7065;50.880;5.502;2022-11-20T16:59:43;7.70;99.90
13982;DHT22;7065;50.880;5.502;2022-11-20T17:02:09;7.70;99.90
13982;DHT22;7065;50.880;5.502;2022-11-20T17:04:36;7.80;99.90
13982;DHT22;7065;50.880;5.502;2022-11-20T17:07:02;7.80;99.90
13982;DHT22;7065;50.880;5.502;2022-11-20T17:09:28;7.80;99.90
13982;DHT22;7065;50.880;5.502;2022-11-20T17:11:54;7.80;99.90
13982;DHT22;7065;50.880;5.502;2022-11-20T17:14:19;7.80;99.90
13982;DHT22;7065;50.880;5.502;2022-11-20T17:16:45;7.90;99.90
13982;DHT22;7065;50.880;5.502;2022-11-20T17:19:11;7.90;99.90
13982;DHT22;7065;50.880;5.502;2022-11-20T17:21:37;7.90;99.90
13982;DHT22;7065;50.880;5.502;2022-11-20T17:24:09;7.90;99.90
13982;DHT22;7065;50.880;5.502;2022-11-20T17:26:36;7.80;99.90
13982;DHT22;7065;50.880;5.502;2022-11-20T17:29:07;7.80;99.90
13982;DHT22;7065;50.880;5.502;2022-11-20T17:31:35;7.80;99.90
13982;DHT22;7065;50.880;5.502;2022-11-20T17:34:03;7.70;99.90
13982;DHT22;7065;50.880;5.502;2022-11-20T17:36:29;7.70;99.90
13982;DHT22;7065;50.880;5.502;2022-11-20T17:38:55;7.60;99.90
13982;DHT22;7065;50.880;5.502;2022-11-20T17:41:23;7.70;99.90
13982;DHT22;7065;50.880;5.502;2022-11-20T17:43:56;7.60;99.90
13982;DHT22;7065;50.880;5.502;2022-11-20T17:46:25;7.60;99.90
13982;DHT22;7065;50.880;5.502;2022-11-20T17:48:51;7.60;99.90
13982;DHT22;7065;50.880;5.502;2022-11-20T17:51:22;7.60;99.90
13982;DHT22;7065;50.880;5.502;2022-11-20T17:53:53;7.60;99.90
13982;DHT22;7065;50.880;5.502;2022-11-20T17:56:19;7.60;99.90